sensor_id;sensor_type;location;lat;lon;timestamp;pressure;altitude;pressure_sealevel;temperature;humidity
8051;BME280;4068;42.158;24.732;2024-03-06T00:01:15;99420.94;;;8.29;100.00
8051;BME280;4068;42.158;24.732;2024-03-06T00:03:41;99455.97;;;8.44;100.00
8051;BME280;4068;42.158;24.732;2024-03-06T00:06:06;99440.03;;;8.33;100.00
8051;BME280;4068;42.158;24.732;2024-03-06T00:08:32;99448.25;;;8.41;100.00
8051;BME280;4068;42.158;24.732;2024-03-06T00:10:57;99442.03;;;8.42;100.00
8051;BME280;4068;42.158;24.732;2024-03-06T00:13:23;99437.16;;;8.36;100.00
8051;BME280;4068;42.158;24.732;2024-03-06T00:15:49;99441.81;;;8.45;100.00
8051;BME280;4068;42.158;24.732;2024-03-06T00:18:14;99433.34;;;8.40;100.00
8051;BME280;4068;42.158;24.732;2024-03-06T00:20:40;99451.09;;;8.51;100.00
8051;BME280;4068;42.158;24.732;2024-03-06T00:23:07;99447.16;;;8.57;100.00
8051;BME280;4068;42.158;24.732;2024-03-06T00:25:33;99455.09;;;8.57;100.00
8051;BME280;4068;42.158;24.732;2024-03-06T00:27:59;99433.91;;;8.45;100.00
8051;BME280;4068;42.158;24.732;2024-03-06T00:30:25;99449.34;;;8.63;100.00
8051;BME280;4068;42.158;24.732;2024-03-06T00:32:51;99457.63;;;8.58;100.00
8051;BME280;4068;42.158;24.732;2024-03-06T00:35:16;99452.00;;;8.63;100.00
8051;BME280;4068;42.158;24.732;2024-03-06T00:37:42;99453.28;;;8.57;100.00
8051;BME280;4068;42.158;24.732;2024-03-06T00:40:08;99439.19;;;8.45;100.00
8051;BME280;4068;42.158;24.732;2024-03-06T00:42:33;99466.63;;;8.56;100.00
8051;BME280;4068;42.158;24.732;2024-03-06T00:45:00;99455.88;;;8.46;100.00
8051;BME280;4068;42.158;24.732;2024-03-06T00:47:27;99468.44;;;8.55;100.00
8051;BME280;4068;42.158;24.732;2024-03-06T00:49:53;99468.44;;;8.55;100.00
8051;BME280;4068;42.158;24.732;2024-03-06T00:52:18;99471.19;;;8.54;100.00
8051;BME280;4068;42.158;24.732;2024-03-06T00:54:43;99471.06;;;8.55;100.00
8051;BME280;4068;42.158;24.732;2024-03-06T00:57:09;99478.03;;;8.56;100.00
8051;BME280;4068;42.158;24.732;2024-03-06T00:59:35;99488.06;;;8.64;100.00
8051;BME280;4068;42.158;24.732;2024-03-06T01:02:00;99476.53;;;8.65;100.00
8051;BME280;4068;42.158;24.732;2024-03-06T01:04:26;99478.41;;;8.63;100.00
8051;BME280;4068;42.158;24.732;2024-03-06T01:06:51;99474.13;;;8.73;100.00
8051;BME280;4068;42.158;24.732;2024-03-06T01:09:17;99466.56;;;8.69;100.00
8051;BME280;4068;42.158;24.732;2024-03-06T01:11:42;99473.66;;;8.68;100.00
8051;BME280;4068;42.158;24.732;2024-03-06T01:14:08;99467.31;;;8.71;100.00
8051;BME280;4068;42.158;24.732;2024-03-06T01:16:33;99449.19;;;8.40;100.00
8051;BME280;4068;42.158;24.732;2024-03-06T01:18:59;99466.31;;;8.48;100.00
8051;BME280;4068;42.158;24.732;2024-03-06T01:21:24;99464.81;;;8.43;100.00
8051;BME280;4068;42.158;24.732;2024-03-06T01:23:50;99475.22;;;8.46;100.00
8051;BME280;4068;42.158;24.732;2024-03-06T01:26:15;99467.47;;;8.43;100.00
8051;BME280;4068;42.158;24.732;2024-03-06T01:28:42;99475.13;;;8.48;100.00
8051;BME280;4068;42.158;24.732;2024-03-06T01:31:07;99477.75;;;8.48;100.00
8051;BME280;4068;42.158;24.732;2024-03-06T01:33:33;99478.59;;;8.49;100.00
8051;BME280;4068;42.158;24.732;2024-03-06T01:35:58;99477.88;;;8.46;100.00
8051;BME280;4068;42.158;24.732;2024-03-06T01:38:24;99487.25;;;8.51;100.00
8051;BME280;4068;42.158;24.732;2024-03-06T01:40:49;99486.28;;;8.52;100.00
8051;BME280;4068;42.158;24.732;2024-03-06T01:43:22;99451.41;;;8.22;100.00
8051;BME280;4068;42.158;24.732;2024-03-06T01:45:48;99480.59;;;8.45;100.00
8051;BME280;4068;42.158;24.732;2024-03-06T01:48:21;99475.22;;;8.46;100.00
8051;BME280;4068;42.158;24.732;2024-03-06T01:50:48;99487.91;;;8.41;100.00
8051;BME280;4068;42.158;24.732;2024-03-06T01:53:16;99490.53;;;8.41;100.00
8051;BME280;4068;42.158;24.732;2024-03-06T01:55:42;99488.72;;;8.42;100.00
8051;BME280;4068;42.158;24.732;2024-03-06T01:58:08;99491.69;;;8.50;100.00
8051;BME280;4068;42.158;24.732;2024-03-06T02:00:34;99473.31;;;8.36;100.00
8051;BME280;4068;42.158;24.732;2024-03-06T02:03:00;99494.09;;;8.53;100.00
8051;BME280;4068;42.158;24.732;2024-03-06T02:05:27;99466.88;;;8.40;100.00
8051;BME280;4068;42.158;24.732;2024-03-06T02:07:55;99487.03;;;8.54;100.00
8051;BME280;4068;42.158;24.732;2024-03-06T02:10:21;99469.84;;;8.48;100.00
8051;BME280;4068;42.158;24.732;2024-03-06T02:12:48;99489.34;;;8.58;100.00
8051;BME280;4068;42.158;24.732;2024-03-06T02:15:14;99491.88;;;8.60;100.00
8051;BME280;4068;42.158;24.732;2024-03-06T02:17:40;99485.84;;;8.58;100.00
8051;BME280;4068;42.158;24.732;2024-03-06T02:20:07;99493.28;;;8.53;100.00
8051;BME280;4068;42.158;24.732;2024-03-06T02:22:38;99462.13;;;8.32;100.00
8051;BME280;4068;42.158;24.732;2024-03-06T02:25:04;99486.31;;;8.39;100.00
8051;BME280;4068;42.158;24.732;2024-03-06T02:27:31;99494.69;;;8.45;100.00
8051;BME280;4068;42.158;24.732;2024-03-06T02:29:57;99492.44;;;8.39;100.00
8051;BME280;4068;42.158;24.732;2024-03-06T02:32:23;99484.31;;;8.42;100.00
8051;BME280;4068;42.158;24.732;2024-03-06T02:34:50;99500.03;;;8.44;100.00
8051;BME280;4068;42.158;24.732;2024-03-06T02:37:15;99497.31;;;8.45;100.00
8051;BME280;4068;42.158;24.732;2024-03-06T02:39:41;99493.91;;;8.43;100.00
8051;BME280;4068;42.158;24.732;2024-03-06T02:42:07;99496.75;;;8.40;100.00
8051;BME280;4068;42.158;24.732;2024-03-06T02:44:32;99498.16;;;8.46;100.00
8051;BME280;4068;42.158;24.732;2024-03-06T02:46:59;99478.34;;;8.15;100.00
8051;BME280;4068;42.158;24.732;2024-03-06T02:49:24;99511.50;;;8.32;100.00
8051;BME280;4068;42.158;24.732;2024-03-06T02:51:50;99509.66;;;8.45;100.00
8051;BME280;4068;42.158;24.732;2024-03-06T02:54:16;99508.06;;;8.55;100.00
8051;BME280;4068;42.158;24.732;2024-03-06T02:56:42;99492.34;;;8.54;100.00
8051;BME280;4068;42.158;24.732;2024-03-06T02:59:08;99496.94;;;8.63;100.00
8051;BME280;4068;42.158;24.732;2024-03-06T03:01:33;99506.97;;;8.58;100.00
8051;BME280;4068;42.158;24.732;2024-03-06T03:03:59;99508.25;;;8.65;100.00
8051;BME280;4068;42.158;24.732;2024-03-06T03:06:25;99505.91;;;8.60;100.00
8051;BME280;4068;42.158;24.732;2024-03-06T03:08:50;99488.09;;;8.51;100.00
8051;BME280;4068;42.158;24.732;2024-03-06T03:11:16;99491.88;;;8.60;100.00
8051;BME280;4068;42.158;24.732;2024-03-06T03:13:41;99500.75;;;8.59;100.00
8051;BME280;4068;42.158;24.732;2024-03-06T03:16:18;99490.88;;;8.50;100.00
8051;BME280;4068;42.158;24.732;2024-03-06T03:18:44;99508.28;;;8.39;100.00
8051;BME280;4068;42.158;24.732;2024-03-06T03:21:10;99481.69;;;8.29;100.00
8051;BME280;4068;42.158;24.732;2024-03-06T03:23:37;99510.63;;;8.44;100.00
8051;BME280;4068;42.158;24.732;2024-03-06T03:26:03;99511.25;;;8.35;100.00
8051;BME280;4068;42.158;24.732;2024-03-06T03:28:47;99523.19;;;8.40;100.00
8051;BME280;4068;42.158;24.732;2024-03-06T03:31:13;99525.53;;;8.45;100.00
8051;BME280;4068;42.158;24.732;2024-03-06T03:33:39;99519.72;;;8.40;100.00
8051;BME280;4068;42.158;24.732;2024-03-06T03:36:05;99520.31;;;8.43;100.00
8051;BME280;4068;42.158;24.732;2024-03-06T03:38:37;99521.50;;;8.52;100.00
8051;BME280;4068;42.158;24.732;2024-03-06T03:41:13;99510.84;;;8.54;100.00
8051;BME280;4068;42.158;24.732;2024-03-06T03:43:39;99515.72;;;8.47;100.00
8051;BME280;4068;42.158;24.732;2024-03-06T03:46:05;99513.78;;;8.49;100.00
8051;BME280;4068;42.158;24.732;2024-03-06T03:48:32;99510.94;;;8.39;100.00
8051;BME280;4068;42.158;24.732;2024-03-06T03:51:01;99505.78;;;8.25;100.00
8051;BME280;4068;42.158;24.732;2024-03-06T03:53:29;99506.31;;;8.30;100.00
8051;BME280;4068;42.158;24.732;2024-03-06T03:55:54;99525.44;;;8.46;100.00
8051;BME280;4068;42.158;24.732;2024-03-06T03:58:20;99495.34;;;8.23;100.00
8051;BME280;4068;42.158;24.732;2024-03-06T04:00:45;99522.69;;;8.35;100.00
8051;BME280;4068;42.158;24.732;2024-03-06T04:03:11;99509.59;;;8.21;100.00
8051;BME280;4068;42.158;24.732;2024-03-06T04:05:36;99542.19;;;8.08;100.00
8051;BME280;4068;42.158;24.732;2024-03-06T04:08:02;99531.19;;;8.02;100.00
8051;BME280;4068;42.158;24.732;2024-03-06T04:10:27;99541.44;;;8.06;100.00
8051;BME280;4068;42.158;24.732;2024-03-06T04:15:37;99545.56;;;7.98;100.00
8051;BME280;4068;42.158;24.732;2024-03-06T04:18:03;99532.81;;;7.78;100.00
8051;BME280;4068;42.158;24.732;2024-03-06T04:20:28;99550.03;;;7.84;100.00
8051;BME280;4068;42.158;24.732;2024-03-06T04:22:54;99549.25;;;7.82;100.00
8051;BME280;4068;42.158;24.732;2024-03-06T04:25:19;99550.97;;;7.70;100.00
8051;BME280;4068;42.158;24.732;2024-03-06T04:27:45;99551.06;;;7.69;100.00
8051;BME280;4068;42.158;24.732;2024-03-06T04:30:11;99551.41;;;7.64;100.00
8051;BME280;4068;42.158;24.732;2024-03-06T04:32:36;99540.16;;;7.48;100.00
8051;BME280;4068;42.158;24.732;2024-03-06T04:35:02;99551.38;;;7.51;100.00
8051;BME280;4068;42.158;24.732;2024-03-06T04:37:27;99548.91;;;7.35;100.00
8051;BME280;4068;42.158;24.732;2024-03-06T04:39:54;99538.75;;;7.16;100.00
8051;BME280;4068;42.158;24.732;2024-03-06T04:42:20;99557.41;;;7.13;100.00
8051;BME280;4068;42.158;24.732;2024-03-06T04:44:45;99564.88;;;7.06;100.00
8051;BME280;4068;42.158;24.732;2024-03-06T04:47:11;99540.69;;;6.87;100.00
8051;BME280;4068;42.158;24.732;2024-03-06T04:49:36;99565.97;;;6.89;100.00
8051;BME280;4068;42.158;24.732;2024-03-06T04:52:02;99554.66;;;6.74;100.00
8051;BME280;4068;42.158;24.732;2024-03-06T04:54:28;99537.91;;;6.61;100.00
8051;BME280;4068;42.158;24.732;2024-03-06T04:56:54;99576.97;;;6.69;100.00
8051;BME280;4068;42.158;24.732;2024-03-06T04:59:20;99571.13;;;6.64;100.00
8051;BME280;4068;42.158;24.732;2024-03-06T05:01:45;99573.66;;;6.65;100.00
8051;BME280;4068;42.158;24.732;2024-03-06T05:04:11;99573.91;;;6.48;100.00
8051;BME280;4068;42.158;24.732;2024-03-06T05:06:37;99566.19;;;6.45;100.00
8051;BME280;4068;42.158;24.732;2024-03-06T05:09:03;99574.84;;;6.47;100.00
8051;BME280;4068;42.158;24.732;2024-03-06T05:11:30;99570.53;;;6.46;100.00
8051;BME280;4068;42.158;24.732;2024-03-06T05:13:59;99578.59;;;6.43;100.00
8051;BME280;4068;42.158;24.732;2024-03-06T05:16:24;99579.00;;;6.36;100.00
8051;BME280;4068;42.158;24.732;2024-03-06T05:18:52;99577.28;;;6.35;100.00
8051;BME280;4068;42.158;24.732;2024-03-06T05:21:17;99594.81;;;6.36;100.00
8051;BME280;4068;42.158;24.732;2024-03-06T05:23:44;99585.75;;;6.41;100.00
8051;BME280;4068;42.158;24.732;2024-03-06T05:26:09;99587.81;;;6.35;100.00
8051;BME280;4068;42.158;24.732;2024-03-06T05:28:36;99598.19;;;6.38;100.00
8051;BME280;4068;42.158;24.732;2024-03-06T05:31:16;99591.44;;;6.34;100.00
8051;BME280;4068;42.158;24.732;2024-03-06T05:33:47;99613.81;;;6.42;100.00
8051;BME280;4068;42.158;24.732;2024-03-06T05:36:12;99614.44;;;6.45;100.00
8051;BME280;4068;42.158;24.732;2024-03-06T05:38:43;99619.25;;;6.53;100.00
8051;BME280;4068;42.158;24.732;2024-03-06T05:41:08;99591.44;;;6.34;100.00
8051;BME280;4068;42.158;24.732;2024-03-06T05:43:34;99623.41;;;6.57;100.00
8051;BME280;4068;42.158;24.732;2024-03-06T05:45:59;99616.13;;;6.61;100.00
8051;BME280;4068;42.158;24.732;2024-03-06T05:48:26;99593.53;;;6.56;100.00
8051;BME280;4068;42.158;24.732;2024-03-06T05:50:52;99595.88;;;6.76;100.00
8051;BME280;4068;42.158;24.732;2024-03-06T05:53:18;99599.97;;;6.80;100.00
8051;BME280;4068;42.158;24.732;2024-03-06T05:55:44;99611.34;;;6.95;100.00
8051;BME280;4068;42.158;24.732;2024-03-06T05:58:09;99614.16;;;7.06;100.00
8051;BME280;4068;42.158;24.732;2024-03-06T06:00:35;99631.97;;;7.30;100.00
8051;BME280;4068;42.158;24.732;2024-03-06T06:03:00;99633.88;;;7.40;100.00
8051;BME280;4068;42.158;24.732;2024-03-06T06:05:25;99629.91;;;7.48;100.00
8051;BME280;4068;42.158;24.732;2024-03-06T06:07:51;99623.81;;;7.60;100.00
8051;BME280;4068;42.158;24.732;2024-03-06T06:10:17;99639.47;;;7.76;100.00
8051;BME280;4068;42.158;24.732;2024-03-06T06:12:42;99637.78;;;7.88;100.00
8051;BME280;4068;42.158;24.732;2024-03-06T06:15:08;99620.44;;;7.97;100.00
8051;BME280;4068;42.158;24.732;2024-03-06T06:17:34;99654.06;;;8.33;100.00
8051;BME280;4068;42.158;24.732;2024-03-06T06:20:00;99618.22;;;8.29;100.00
8051;BME280;4068;42.158;24.732;2024-03-06T06:22:28;99658.19;;;8.63;100.00
8051;BME280;4068;42.158;24.732;2024-03-06T06:24:54;99666.63;;;8.81;100.00
8051;BME280;4068;42.158;24.732;2024-03-06T06:27:21;99664.44;;;8.99;100.00
8051;BME280;4068;42.158;24.732;2024-03-06T06:29:46;99663.91;;;9.07;100.00
8051;BME280;4068;42.158;24.732;2024-03-06T06:32:12;99643.47;;;8.72;100.00
8051;BME280;4068;42.158;24.732;2024-03-06T06:34:37;99656.91;;;9.06;100.00
8051;BME280;4068;42.158;24.732;2024-03-06T06:37:03;99672.75;;;9.19;100.00
8051;BME280;4068;42.158;24.732;2024-03-06T06:39:28;99680.63;;;9.31;100.00
8051;BME280;4068;42.158;24.732;2024-03-06T06:41:54;99674.09;;;9.48;100.00
8051;BME280;4068;42.158;24.732;2024-03-06T06:44:19;99673.09;;;9.62;100.00
8051;BME280;4068;42.158;24.732;2024-03-06T06:46:45;99685.50;;;9.73;100.00
8051;BME280;4068;42.158;24.732;2024-03-06T06:49:10;99665.22;;;9.49;100.00
8051;BME280;4068;42.158;24.732;2024-03-06T06:51:36;99679.22;;;9.39;100.00
8051;BME280;4068;42.158;24.732;2024-03-06T06:54:01;99676.16;;;9.45;100.00
8051;BME280;4068;42.158;24.732;2024-03-06T06:56:28;99661.75;;;9.60;100.00
8051;BME280;4068;42.158;24.732;2024-03-06T06:58:54;99665.31;;;9.72;100.00
8051;BME280;4068;42.158;24.732;2024-03-06T07:01:19;99663.91;;;9.91;100.00
8051;BME280;4068;42.158;24.732;2024-03-06T07:03:45;99687.59;;;10.28;100.00
8051;BME280;4068;42.158;24.732;2024-03-06T07:06:10;99682.94;;;10.43;100.00
8051;BME280;4068;42.158;24.732;2024-03-06T07:08:37;99695.72;;;10.60;100.00
8051;BME280;4068;42.158;24.732;2024-03-06T07:11:03;99695.50;;;10.75;100.00
8051;BME280;4068;42.158;24.732;2024-03-06T07:13:28;99693.19;;;10.93;100.00
8051;BME280;4068;42.158;24.732;2024-03-06T07:15:54;99670.75;;;10.97;100.00
8051;BME280;4068;42.158;24.732;2024-03-06T07:18:19;99697.38;;;11.18;100.00
8051;BME280;4068;42.158;24.732;2024-03-06T07:20:45;99696.88;;;11.24;100.00
8051;BME280;4068;42.158;24.732;2024-03-06T07:23:10;99695.53;;;11.30;100.00
8051;BME280;4068;42.158;24.732;2024-03-06T07:25:36;99691.16;;;11.40;100.00
8051;BME280;4068;42.158;24.732;2024-03-06T07:28:02;99688.72;;;11.48;100.00
8051;BME280;4068;42.158;24.732;2024-03-06T07:30:27;99700.88;;;11.62;100.00
8051;BME280;4068;42.158;24.732;2024-03-06T07:32:55;99694.53;;;11.53;100.00
8051;BME280;4068;42.158;24.732;2024-03-06T07:35:20;99696.44;;;11.51;100.00
8051;BME280;4068;42.158;24.732;2024-03-06T07:37:45;99690.16;;;11.52;100.00
8051;BME280;4068;42.158;24.732;2024-03-06T07:40:12;99692.44;;;11.57;100.00
8051;BME280;4068;42.158;24.732;2024-03-06T07:42:37;99694.13;;;11.58;100.00
8051;BME280;4068;42.158;24.732;2024-03-06T07:45:05;99694.56;;;11.74;100.00
8051;BME280;4068;42.158;24.732;2024-03-06T07:47:30;99684.25;;;11.81;100.00
8051;BME280;4068;42.158;24.732;2024-03-06T07:49:56;99680.50;;;11.84;100.00
8051;BME280;4068;42.158;24.732;2024-03-06T07:52:21;99681.06;;;11.99;100.00
8051;BME280;4068;42.158;24.732;2024-03-06T07:54:47;99683.41;;;12.13;100.00
8051;BME280;4068;42.158;24.732;2024-03-06T07:57:12;99685.09;;;12.14;100.00
8051;BME280;4068;42.158;24.732;2024-03-06T07:59:38;99679.25;;;12.20;100.00
8051;BME280;4068;42.158;24.732;2024-03-06T08:02:03;99688.59;;;12.15;100.00
8051;BME280;4068;42.158;24.732;2024-03-06T08:04:30;99686.88;;;12.14;100.00
8051;BME280;4068;42.158;24.732;2024-03-06T08:06:55;99655.63;;;11.85;100.00
8051;BME280;4068;42.158;24.732;2024-03-06T08:09:21;99679.94;;;11.80;100.00
8051;BME280;4068;42.158;24.732;2024-03-06T08:11:47;99681.78;;;11.89;100.00
8051;BME280;4068;42.158;24.732;2024-03-06T08:14:12;99682.50;;;12.03;100.00
8051;BME280;4068;42.158;24.732;2024-03-06T08:16:40;99673.41;;;12.05;100.00
8051;BME280;4068;42.158;24.732;2024-03-06T08:19:05;99662.34;;;12.00;100.00
8051;BME280;4068;42.158;24.732;2024-03-06T08:21:31;99690.66;;;12.11;100.00
8051;BME280;4068;42.158;24.732;2024-03-06T08:23:56;99653.25;;;12.03;100.00
8051;BME280;4068;42.158;24.732;2024-03-06T08:26:22;99669.00;;;12.16;100.00
8051;BME280;4068;42.158;24.732;2024-03-06T08:28:48;99687.66;;;12.25;100.00
8051;BME280;4068;42.158;24.732;2024-03-06T08:31:14;99679.88;;;12.34;100.00
8051;BME280;4068;42.158;24.732;2024-03-06T08:33:39;99684.75;;;12.29;100.00
8051;BME280;4068;42.158;24.732;2024-03-06T08:36:05;99669.97;;;12.36;100.00
8051;BME280;4068;42.158;24.732;2024-03-06T08:38:30;99675.72;;;12.41;100.00
8051;BME280;4068;42.158;24.732;2024-03-06T08:40:56;99660.56;;;12.32;100.00
8051;BME280;4068;42.158;24.732;2024-03-06T08:43:21;99675.63;;;12.52;100.00
8051;BME280;4068;42.158;24.732;2024-03-06T08:45:47;99675.84;;;12.70;100.00
8051;BME280;4068;42.158;24.732;2024-03-06T08:48:12;99650.63;;;12.65;100.00
8051;BME280;4068;42.158;24.732;2024-03-06T08:50:39;99669.75;;;12.89;100.00
8051;BME280;4068;42.158;24.732;2024-03-06T08:53:04;99674.00;;;13.02;100.00
8051;BME280;4068;42.158;24.732;2024-03-06T08:55:30;99673.44;;;13.08;100.00
8051;BME280;4068;42.158;24.732;2024-03-06T08:57:55;99664.50;;;13.19;100.00
8051;BME280;4068;42.158;24.732;2024-03-06T09:00:21;99670.88;;;13.37;100.00
8051;BME280;4068;42.158;24.732;2024-03-06T09:02:47;99666.81;;;13.43;100.00
8051;BME280;4068;42.158;24.732;2024-03-06T09:05:12;99673.41;;;13.39;100.00
8051;BME280;4068;42.158;24.732;2024-03-06T09:07:41;99667.22;;;13.48;100.00
8051;BME280;4068;42.158;24.732;2024-03-06T09:10:08;99671.56;;;13.49;99.68
8051;BME280;4068;42.158;24.732;2024-03-06T09:12:33;99664.38;;;13.30;98.45
8051;BME280;4068;42.158;24.732;2024-03-06T09:15:00;99637.75;;;13.30;99.83
8051;BME280;4068;42.158;24.732;2024-03-06T09:17:26;99664.84;;;13.74;98.46
8051;BME280;4068;42.158;24.732;2024-03-06T09:19:52;99665.97;;;13.72;99.90
8051;BME280;4068;42.158;24.732;2024-03-06T09:22:17;99644.63;;;13.91;99.03
8051;BME280;4068;42.158;24.732;2024-03-06T09:24:43;99663.53;;;14.18;97.06
8051;BME280;4068;42.158;24.732;2024-03-06T09:27:08;99656.63;;;14.25;95.69
8051;BME280;4068;42.158;24.732;2024-03-06T09:29:34;99657.63;;;14.24;97.68
8051;BME280;4068;42.158;24.732;2024-03-06T09:31:59;99647.63;;;14.36;94.53
8051;BME280;4068;42.158;24.732;2024-03-06T09:34:25;99658.50;;;14.62;93.23
8051;BME280;4068;42.158;24.732;2024-03-06T09:36:51;99654.69;;;14.64;93.33
8051;BME280;4068;42.158;24.732;2024-03-06T09:39:17;99647.56;;;14.55;94.31
8051;BME280;4068;42.158;24.732;2024-03-06T09:41:49;99650.25;;;14.83;93.06
8051;BME280;4068;42.158;24.732;2024-03-06T09:44:16;99642.22;;;14.93;92.38
8051;BME280;4068;42.158;24.732;2024-03-06T09:46:46;99645.13;;;14.99;92.93
8051;BME280;4068;42.158;24.732;2024-03-06T09:49:17;99642.00;;;15.04;92.97
8051;BME280;4068;42.158;24.732;2024-03-06T09:51:44;99648.16;;;15.05;93.51
8051;BME280;4068;42.158;24.732;2024-03-06T09:54:15;99645.06;;;15.09;93.06
8051;BME280;4068;42.158;24.732;2024-03-06T09:56:44;99639.16;;;15.33;92.46
8051;BME280;4068;42.158;24.732;2024-03-06T09:59:11;99643.09;;;15.47;87.43
8051;BME280;4068;42.158;24.732;2024-03-06T10:02:01;99645.47;;;15.68;82.85
8051;BME280;4068;42.158;24.732;2024-03-06T10:04:28;99630.91;;;15.81;81.73
8051;BME280;4068;42.158;24.732;2024-03-06T10:06:56;99606.34;;;15.67;80.30
8051;BME280;4068;42.158;24.732;2024-03-06T10:09:22;99617.34;;;16.00;80.69
8051;BME280;4068;42.158;24.732;2024-03-06T10:11:48;99620.09;;;15.91;78.42
8051;BME280;4068;42.158;24.732;2024-03-06T10:14:14;99611.03;;;16.10;77.15
8051;BME280;4068;42.158;24.732;2024-03-06T10:17:00;99593.28;;;16.09;74.87
8051;BME280;4068;42.158;24.732;2024-03-06T10:19:27;99615.91;;;16.41;71.72
8051;BME280;4068;42.158;24.732;2024-03-06T10:21:54;99613.69;;;16.36;71.65
8051;BME280;4068;42.158;24.732;2024-03-06T10:24:21;99608.50;;;16.69;69.92
8051;BME280;4068;42.158;24.732;2024-03-06T10:26:49;99585.84;;;16.20;71.42
8051;BME280;4068;42.158;24.732;2024-03-06T10:29:18;99589.00;;;16.16;71.27
8051;BME280;4068;42.158;24.732;2024-03-06T10:32:06;99602.75;;;16.21;71.05
8051;BME280;4068;42.158;24.732;2024-03-06T10:34:31;99597.72;;;16.52;70.74
8051;BME280;4068;42.158;24.732;2024-03-06T10:36:58;99604.00;;;16.78;68.27
8051;BME280;4068;42.158;24.732;2024-03-06T10:39:24;99578.81;;;16.97;66.13
8051;BME280;4068;42.158;24.732;2024-03-06T10:41:54;99594.75;;;17.31;64.41
8051;BME280;4068;42.158;24.732;2024-03-06T10:44:25;99589.75;;;17.36;64.01
8051;BME280;4068;42.158;24.732;2024-03-06T10:47:05;99589.06;;;17.34;62.82
8051;BME280;4068;42.158;24.732;2024-03-06T10:49:31;99591.41;;;17.29;63.58
8051;BME280;4068;42.158;24.732;2024-03-06T10:51:59;99585.53;;;17.25;62.95
8051;BME280;4068;42.158;24.732;2024-03-06T10:54:28;99585.38;;;17.11;62.52
8051;BME280;4068;42.158;24.732;2024-03-06T10:56:55;99553.00;;;16.87;62.40
8051;BME280;4068;42.158;24.732;2024-03-06T10:59:24;99570.28;;;16.93;62.69
8051;BME280;4068;42.158;24.732;2024-03-06T11:01:53;99564.38;;;16.89;62.51
8051;BME280;4068;42.158;24.732;2024-03-06T11:04:20;99561.41;;;17.01;62.97
8051;BME280;4068;42.158;24.732;2024-03-06T11:06:45;99551.03;;;17.22;62.61
8051;BME280;4068;42.158;24.732;2024-03-06T11:09:11;99552.91;;;17.55;61.04
8051;BME280;4068;42.158;24.732;2024-03-06T11:11:53;99557.69;;;18.17;60.32
8051;BME280;4068;42.158;24.732;2024-03-06T11:14:22;99552.88;;;18.75;58.04
8051;BME280;4068;42.158;24.732;2024-03-06T11:17:04;99546.63;;;18.91;56.23
8051;BME280;4068;42.158;24.732;2024-03-06T11:19:31;99517.44;;;19.11;53.65
8051;BME280;4068;42.158;24.732;2024-03-06T11:21:57;99532.28;;;19.45;51.79
8051;BME280;4068;42.158;24.732;2024-03-06T11:24:24;99528.75;;;19.83;50.01
8051;BME280;4068;42.158;24.732;2024-03-06T11:29:24;99526.16;;;20.20;45.63
8051;BME280;4068;42.158;24.732;2024-03-06T11:32:06;99523.00;;;20.16;47.24
8051;BME280;4068;42.158;24.732;2024-03-06T11:34:36;99522.09;;;20.60;44.81
8051;BME280;4068;42.158;24.732;2024-03-06T11:37:06;99518.16;;;20.41;44.97
8051;BME280;4068;42.158;24.732;2024-03-06T11:39:35;99515.88;;;20.75;44.87
8051;BME280;4068;42.158;24.732;2024-03-06T11:42:02;99513.38;;;20.58;44.28
8051;BME280;4068;42.158;24.732;2024-03-06T11:44:27;99505.88;;;20.90;41.85
8051;BME280;4068;42.158;24.732;2024-03-06T11:46:58;99508.00;;;20.95;40.68
8051;BME280;4068;42.158;24.732;2024-03-06T11:49:26;99512.00;;;20.47;42.40
8051;BME280;4068;42.158;24.732;2024-03-06T11:51:56;99494.78;;;20.27;42.67
8051;BME280;4068;42.158;24.732;2024-03-06T11:54:23;99473.81;;;19.92;43.23
8051;BME280;4068;42.158;24.732;2024-03-06T11:56:52;99503.03;;;19.80;47.91
8051;BME280;4068;42.158;24.732;2024-03-06T12:01:57;99498.59;;;19.49;51.89
8051;BME280;4068;42.158;24.732;2024-03-06T12:04:24;99492.09;;;19.29;53.09
8051;BME280;4068;42.158;24.732;2024-03-06T12:06:50;99481.66;;;18.79;53.90
8051;BME280;4068;42.158;24.732;2024-03-06T12:09:16;99489.75;;;18.08;57.08
8051;BME280;4068;42.158;24.732;2024-03-06T12:11:42;99483.34;;;17.53;59.57
8051;BME280;4068;42.158;24.732;2024-03-06T12:14:16;99493.59;;;17.41;59.78
8051;BME280;4068;42.158;24.732;2024-03-06T12:16:43;99493.09;;;17.38;60.14
8051;BME280;4068;42.158;24.732;2024-03-06T12:19:09;99493.59;;;17.41;59.57
8051;BME280;4068;42.158;24.732;2024-03-06T12:21:35;99489.53;;;17.54;59.99
8051;BME280;4068;42.158;24.732;2024-03-06T12:24:08;99491.09;;;17.23;59.95
8051;BME280;4068;42.158;24.732;2024-03-06T12:26:34;99491.75;;;17.34;59.53
8051;BME280;4068;42.158;24.732;2024-03-06T12:29:04;99486.22;;;17.35;60.48
8051;BME280;4068;42.158;24.732;2024-03-06T12:31:31;99485.34;;;17.59;59.01
8051;BME280;4068;42.158;24.732;2024-03-06T12:33:57;99455.97;;;17.91;56.98
8051;BME280;4068;42.158;24.732;2024-03-06T12:36:28;99467.25;;;18.18;56.63
8051;BME280;4068;42.158;24.732;2024-03-06T12:38:55;99487.81;;;17.94;56.71
8051;BME280;4068;42.158;24.732;2024-03-06T12:41:21;99489.72;;;18.25;57.03
8051;BME280;4068;42.158;24.732;2024-03-06T12:43:46;99484.84;;;18.28;56.90
8051;BME280;4068;42.158;24.732;2024-03-06T12:46:12;99487.53;;;18.83;56.33
8051;BME280;4068;42.158;24.732;2024-03-06T12:48:37;99485.13;;;18.96;55.70
8051;BME280;4068;42.158;24.732;2024-03-06T12:51:03;99492.88;;;18.91;55.51
8051;BME280;4068;42.158;24.732;2024-03-06T12:53:30;99482.56;;;18.49;56.31
8051;BME280;4068;42.158;24.732;2024-03-06T12:55:56;99492.00;;;18.36;56.88
8051;BME280;4068;42.158;24.732;2024-03-06T12:58:22;99487.75;;;18.50;57.01
8051;BME280;4068;42.158;24.732;2024-03-06T13:00:47;99480.47;;;18.27;57.86
8051;BME280;4068;42.158;24.732;2024-03-06T13:03:13;99487.97;;;18.40;57.14
8051;BME280;4068;42.158;24.732;2024-03-06T13:05:38;99494.53;;;18.61;56.28
8051;BME280;4068;42.158;24.732;2024-03-06T13:08:04;99485.59;;;18.45;56.95
8051;BME280;4068;42.158;24.732;2024-03-06T13:10:30;99488.09;;;18.47;56.66
8051;BME280;4068;42.158;24.732;2024-03-06T13:12:55;99500.78;;;18.22;57.62
8051;BME280;4068;42.158;24.732;2024-03-06T13:15:20;99493.69;;;17.98;58.03